Coteau, North Dakota
Current Conditions -  °F | °C
As of 7:35 AM on Friday 19 Dec 2014 (Local Time) from K08D Reporting Station
Moderate Fog Moderate Fog  
Wind Chill: 25°   Ceiling: 200
Heat Index: 25°   Visibility: 0.5mi
Dew Point: 25°   Wind: 3mph
Humidity: 100%   Direction: 250°WSW
Pressure: 29.9"   Gusts: NA
Location:  48.7813°N, 102.247°W
Report Text: K08D 191335Z AUTO 25003KT 1/2SM FZFG OVC002 M04/M04 A2990 RMK AO2
Loading
Personal Weather Stations






























Interactive Weather Map New forecast layout! Learn more

10-Day Weather Forecast

Advertisements
Track Severe Weather on mobile